sensor_id;sensor_type;location;lat;lon;timestamp;P1;durP1;ratioP1;P2;durP2;ratioP2
71150;SDS011;59071;42.138;24.768;2022-09-03T00:01:00;15.52;;;12.07;;
71150;SDS011;59071;42.138;24.768;2022-09-03T00:03:37;13.40;;;11.18;;
71150;SDS011;59071;42.138;24.768;2022-09-03T00:14:38;13.25;;;10.85;;
71150;SDS011;59071;42.138;24.768;2022-09-03T00:17:13;13.75;;;11.48;;
71150;SDS011;59071;42.138;24.768;2022-09-03T00:19:59;14.93;;;11.32;;
71150;SDS011;59071;42.138;24.768;2022-09-03T00:22:31;13.95;;;11.38;;
71150;SDS011;59071;42.138;24.768;2022-09-03T00:25:01;13.68;;;11.50;;
71150;SDS011;59071;42.138;24.768;2022-09-03T00:27:30;12.82;;;11.50;;
71150;SDS011;59071;42.138;24.768;2022-09-03T00:30:03;15.88;;;11.95;;
71150;SDS011;59071;42.138;24.768;2022-09-03T00:35:32;17.58;;;12.05;;
71150;SDS011;59071;42.138;24.768;2022-09-03T00:38:02;14.23;;;12.00;;
71150;SDS011;59071;42.138;24.768;2022-09-03T00:40:34;13.95;;;11.90;;
71150;SDS011;59071;42.138;24.768;2022-09-03T00:45:53;17.48;;;11.85;;
71150;SDS011;59071;42.138;24.768;2022-09-03T00:48:31;13.02;;;11.57;;
71150;SDS011;59071;42.138;24.768;2022-09-03T00:56:41;13.82;;;12.43;;
71150;SDS011;59071;42.138;24.768;2022-09-03T01:10:55;17.15;;;12.70;;
71150;SDS011;59071;42.138;24.768;2022-09-03T01:13:40;16.58;;;12.85;;
71150;SDS011;59071;42.138;24.768;2022-09-03T01:29:39;14.15;;;12.65;;
71150;SDS011;59071;42.138;24.768;2022-09-03T01:32:24;16.13;;;13.20;;
71150;SDS011;59071;42.138;24.768;2022-09-03T01:45:39;16.33;;;13.63;;
71150;SDS011;59071;42.138;24.768;2022-09-03T01:48:52;18.20;;;13.93;;
71150;SDS011;59071;42.138;24.768;2022-09-03T01:51:19;19.50;;;13.63;;
71150;SDS011;59071;42.138;24.768;2022-09-03T01:56:54;16.67;;;12.80;;
71150;SDS011;59071;42.138;24.768;2022-09-03T01:59:36;16.45;;;13.23;;
71150;SDS011;59071;42.138;24.768;2022-09-03T02:02:20;14.52;;;12.68;;
71150;SDS011;59071;42.138;24.768;2022-09-03T02:07:33;14.05;;;12.65;;
71150;SDS011;59071;42.138;24.768;2022-09-03T02:10:20;16.73;;;12.40;;
71150;SDS011;59071;42.138;24.768;2022-09-03T02:12:52;13.93;;;11.90;;
71150;SDS011;59071;42.138;24.768;2022-09-03T02:15:23;13.75;;;12.00;;
71150;SDS011;59071;42.138;24.768;2022-09-03T02:17:50;14.80;;;12.43;;
71150;SDS011;59071;42.138;24.768;2022-09-03T02:20:21;16.48;;;12.13;;
71150;SDS011;59071;42.138;24.768;2022-09-03T02:22:50;14.70;;;12.48;;
71150;SDS011;59071;42.138;24.768;2022-09-03T02:25:18;15.98;;;11.90;;
71150;SDS011;59071;42.138;24.768;2022-09-03T02:27:47;13.38;;;11.90;;
71150;SDS011;59071;42.138;24.768;2022-09-03T02:30:14;13.05;;;11.55;;
71150;SDS011;59071;42.138;24.768;2022-09-03T02:32:41;13.07;;;11.68;;
71150;SDS011;59071;42.138;24.768;2022-09-03T02:35:06;14.05;;;11.68;;
71150;SDS011;59071;42.138;24.768;2022-09-03T02:37:32;16.75;;;11.80;;
71150;SDS011;59071;42.138;24.768;2022-09-03T02:39:58;16.95;;;11.68;;
71150;SDS011;59071;42.138;24.768;2022-09-03T02:42:24;15.50;;;11.52;;
71150;SDS011;59071;42.138;24.768;2022-09-03T02:44:51;15.88;;;12.02;;
71150;SDS011;59071;42.138;24.768;2022-09-03T02:47:21;13.88;;;11.93;;
71150;SDS011;59071;42.138;24.768;2022-09-03T02:49:49;14.52;;;11.25;;
71150;SDS011;59071;42.138;24.768;2022-09-03T02:52:15;13.80;;;11.02;;
71150;SDS011;59071;42.138;24.768;2022-09-03T02:54:40;14.30;;;10.98;;
71150;SDS011;59071;42.138;24.768;2022-09-03T02:57:07;12.45;;;10.82;;
71150;SDS011;59071;42.138;24.768;2022-09-03T02:59:33;15.07;;;11.00;;
71150;SDS011;59071;42.138;24.768;2022-09-03T03:01:59;14.73;;;10.52;;
71150;SDS011;59071;42.138;24.768;2022-09-03T03:04:25;12.52;;;10.40;;
71150;SDS011;59071;42.138;24.768;2022-09-03T03:06:51;12.30;;;10.95;;
71150;SDS011;59071;42.138;24.768;2022-09-03T03:09:16;12.55;;;10.02;;
71150;SDS011;59071;42.138;24.768;2022-09-03T03:11:42;14.88;;;10.43;;
71150;SDS011;59071;42.138;24.768;2022-09-03T03:14:08;13.35;;;10.63;;
71150;SDS011;59071;42.138;24.768;2022-09-03T03:16:34;12.77;;;10.35;;
71150;SDS011;59071;42.138;24.768;2022-09-03T03:19:00;13.80;;;10.23;;
71150;SDS011;59071;42.138;24.768;2022-09-03T03:21:25;13.65;;;10.15;;
71150;SDS011;59071;42.138;24.768;2022-09-03T03:23:51;13.82;;;9.57;;
71150;SDS011;59071;42.138;24.768;2022-09-03T03:26:17;11.65;;;9.18;;
71150;SDS011;59071;42.138;24.768;2022-09-03T03:28:44;10.68;;;9.40;;
71150;SDS011;59071;42.138;24.768;2022-09-03T03:31:17;12.45;;;9.57;;
71150;SDS011;59071;42.138;24.768;2022-09-03T03:33:49;11.38;;;9.25;;
71150;SDS011;59071;42.138;24.768;2022-09-03T03:36:19;12.45;;;9.63;;
71150;SDS011;59071;42.138;24.768;2022-09-03T03:38:45;11.88;;;9.35;;
71150;SDS011;59071;42.138;24.768;2022-09-03T03:41:21;14.05;;;9.27;;
71150;SDS011;59071;42.138;24.768;2022-09-03T03:43:51;12.20;;;9.25;;
71150;SDS011;59071;42.138;24.768;2022-09-03T03:46:22;14.82;;;9.43;;
71150;SDS011;59071;42.138;24.768;2022-09-03T03:48:49;12.35;;;9.38;;
71150;SDS011;59071;42.138;24.768;2022-09-03T03:51:16;14.20;;;9.73;;
71150;SDS011;59071;42.138;24.768;2022-09-03T03:53:42;11.50;;;9.52;;
71150;SDS011;59071;42.138;24.768;2022-09-03T03:56:09;12.82;;;9.63;;
71150;SDS011;59071;42.138;24.768;2022-09-03T03:58:36;14.50;;;8.98;;
71150;SDS011;59071;42.138;24.768;2022-09-03T04:01:12;17.10;;;9.95;;
71150;SDS011;59071;42.138;24.768;2022-09-03T04:03:40;11.82;;;9.18;;
71150;SDS011;59071;42.138;24.768;2022-09-03T04:06:06;16.02;;;9.45;;
71150;SDS011;59071;42.138;24.768;2022-09-03T04:08:33;14.75;;;9.25;;
71150;SDS011;59071;42.138;24.768;2022-09-03T04:11:01;14.63;;;9.35;;
71150;SDS011;59071;42.138;24.768;2022-09-03T04:13:31;11.27;;;8.75;;
71150;SDS011;59071;42.138;24.768;2022-09-03T04:16:01;11.50;;;9.05;;
71150;SDS011;59071;42.138;24.768;2022-09-03T04:18:27;9.90;;;8.32;;
71150;SDS011;59071;42.138;24.768;2022-09-03T04:20:57;9.95;;;7.78;;
71150;SDS011;59071;42.138;24.768;2022-09-03T04:23:28;12.10;;;7.53;;
71150;SDS011;59071;42.138;24.768;2022-09-03T04:26:03;12.15;;;8.00;;
71150;SDS011;59071;42.138;24.768;2022-09-03T04:28:30;10.05;;;7.63;;
71150;SDS011;59071;42.138;24.768;2022-09-03T04:31:03;10.63;;;7.10;;
71150;SDS011;59071;42.138;24.768;2022-09-03T04:33:31;19.23;;;12.55;;
71150;SDS011;59071;42.138;24.768;2022-09-03T04:36:39;14.57;;;7.82;;
71150;SDS011;59071;42.138;24.768;2022-09-03T04:38:47;10.80;;;7.55;;
71150;SDS011;59071;42.138;24.768;2022-09-03T04:41:15;9.40;;;7.35;;
71150;SDS011;59071;42.138;24.768;2022-09-03T04:43:43;9.10;;;5.70;;
71150;SDS011;59071;42.138;24.768;2022-09-03T04:46:09;8.52;;;5.65;;
71150;SDS011;59071;42.138;24.768;2022-09-03T04:48:37;7.55;;;5.60;;
71150;SDS011;59071;42.138;24.768;2022-09-03T04:51:04;16.35;;;10.20;;
71150;SDS011;59071;42.138;24.768;2022-09-03T04:53:34;13.27;;;10.95;;
71150;SDS011;59071;42.138;24.768;2022-09-03T04:56:01;9.18;;;5.32;;
71150;SDS011;59071;42.138;24.768;2022-09-03T04:58:27;8.77;;;6.80;;
71150;SDS011;59071;42.138;24.768;2022-09-03T05:00:53;8.23;;;5.18;;
71150;SDS011;59071;42.138;24.768;2022-09-03T05:03:18;7.78;;;5.50;;
71150;SDS011;59071;42.138;24.768;2022-09-03T05:05:54;7.45;;;5.47;;
71150;SDS011;59071;42.138;24.768;2022-09-03T05:08:20;7.30;;;5.38;;
71150;SDS011;59071;42.138;24.768;2022-09-03T05:10:46;6.60;;;5.10;;
71150;SDS011;59071;42.138;24.768;2022-09-03T05:13:12;9.43;;;5.25;;
71150;SDS011;59071;42.138;24.768;2022-09-03T05:15:37;12.93;;;5.68;;
71150;SDS011;59071;42.138;24.768;2022-09-03T05:18:02;16.17;;;9.48;;
71150;SDS011;59071;42.138;24.768;2022-09-03T05:20:28;10.55;;;5.53;;
71150;SDS011;59071;42.138;24.768;2022-09-03T05:22:55;7.22;;;5.32;;
71150;SDS011;59071;42.138;24.768;2022-09-03T05:25:21;10.43;;;5.60;;
71150;SDS011;59071;42.138;24.768;2022-09-03T05:27:47;9.45;;;5.30;;
71150;SDS011;59071;42.138;24.768;2022-09-03T05:30:13;8.23;;;5.20;;
71150;SDS011;59071;42.138;24.768;2022-09-03T05:32:38;10.48;;;6.47;;
71150;SDS011;59071;42.138;24.768;2022-09-03T05:35:04;9.60;;;4.80;;
71150;SDS011;59071;42.138;24.768;2022-09-03T05:37:31;9.70;;;4.93;;
71150;SDS011;59071;42.138;24.768;2022-09-03T05:39:56;6.80;;;5.03;;
71150;SDS011;59071;42.138;24.768;2022-09-03T05:42:22;5.97;;;4.60;;
71150;SDS011;59071;42.138;24.768;2022-09-03T05:44:47;7.43;;;4.55;;
71150;SDS011;59071;42.138;24.768;2022-09-03T05:47:13;10.18;;;4.70;;
71150;SDS011;59071;42.138;24.768;2022-09-03T05:49:40;6.82;;;4.57;;
71150;SDS011;59071;42.138;24.768;2022-09-03T05:52:05;7.63;;;4.35;;
71150;SDS011;59071;42.138;24.768;2022-09-03T05:54:31;7.53;;;3.83;;
71150;SDS011;59071;42.138;24.768;2022-09-03T05:56:56;8.20;;;4.53;;
71150;SDS011;59071;42.138;24.768;2022-09-03T05:59:21;7.55;;;4.90;;
71150;SDS011;59071;42.138;24.768;2022-09-03T06:01:47;7.88;;;4.47;;
71150;SDS011;59071;42.138;24.768;2022-09-03T06:04:14;7.88;;;4.97;;
71150;SDS011;59071;42.138;24.768;2022-09-03T06:06:44;7.93;;;4.70;;
71150;SDS011;59071;42.138;24.768;2022-09-03T06:09:12;7.40;;;4.53;;
71150;SDS011;59071;42.138;24.768;2022-09-03T06:11:41;7.72;;;4.70;;
71150;SDS011;59071;42.138;24.768;2022-09-03T06:14:07;8.00;;;4.72;;
71150;SDS011;59071;42.138;24.768;2022-09-03T06:16:34;7.40;;;4.55;;
71150;SDS011;59071;42.138;24.768;2022-09-03T06:21:31;7.30;;;4.53;;
71150;SDS011;59071;42.138;24.768;2022-09-03T06:23:57;6.43;;;4.80;;
71150;SDS011;59071;42.138;24.768;2022-09-03T06:26:23;8.60;;;4.65;;
71150;SDS011;59071;42.138;24.768;2022-09-03T06:28:49;8.73;;;5.90;;
71150;SDS011;59071;42.138;24.768;2022-09-03T06:31:19;7.93;;;5.60;;
71150;SDS011;59071;42.138;24.768;2022-09-03T06:33:45;6.55;;;4.40;;
71150;SDS011;59071;42.138;24.768;2022-09-03T06:36:15;8.85;;;4.60;;
71150;SDS011;59071;42.138;24.768;2022-09-03T06:38:42;9.77;;;5.28;;
71150;SDS011;59071;42.138;24.768;2022-09-03T06:41:09;7.78;;;4.82;;
71150;SDS011;59071;42.138;24.768;2022-09-03T06:43:36;7.90;;;4.60;;
71150;SDS011;59071;42.138;24.768;2022-09-03T06:46:04;7.13;;;5.10;;
71150;SDS011;59071;42.138;24.768;2022-09-03T06:48:32;5.50;;;4.60;;
71150;SDS011;59071;42.138;24.768;2022-09-03T06:51:00;6.07;;;4.85;;
71150;SDS011;59071;42.138;24.768;2022-09-03T06:53:28;8.35;;;4.55;;
71150;SDS011;59071;42.138;24.768;2022-09-03T06:55:57;6.95;;;4.78;;
71150;SDS011;59071;42.138;24.768;2022-09-03T06:58:29;6.78;;;4.85;;
71150;SDS011;59071;42.138;24.768;2022-09-03T07:01:06;7.85;;;4.80;;
71150;SDS011;59071;42.138;24.768;2022-09-03T07:03:34;6.15;;;4.70;;
71150;SDS011;59071;42.138;24.768;2022-09-03T07:06:01;6.57;;;5.63;;
71150;SDS011;59071;42.138;24.768;2022-09-03T07:08:29;5.50;;;4.45;;
71150;SDS011;59071;42.138;24.768;2022-09-03T07:10:57;7.45;;;4.72;;
71150;SDS011;59071;42.138;24.768;2022-09-03T07:13:32;6.60;;;4.63;;
71150;SDS011;59071;42.138;24.768;2022-09-03T07:16:09;6.90;;;4.88;;
71150;SDS011;59071;42.138;24.768;2022-09-03T07:18:35;8.68;;;4.93;;
71150;SDS011;59071;42.138;24.768;2022-09-03T07:21:06;6.85;;;4.60;;
71150;SDS011;59071;42.138;24.768;2022-09-03T07:23:33;6.05;;;4.65;;
71150;SDS011;59071;42.138;24.768;2022-09-03T07:26:00;5.30;;;4.40;;
71150;SDS011;59071;42.138;24.768;2022-09-03T07:28:28;7.70;;;4.63;;
71150;SDS011;59071;42.138;24.768;2022-09-03T07:30:59;10.18;;;4.85;;
71150;SDS011;59071;42.138;24.768;2022-09-03T07:33:29;6.88;;;4.85;;
71150;SDS011;59071;42.138;24.768;2022-09-03T07:35:55;5.90;;;4.70;;
71150;SDS011;59071;42.138;24.768;2022-09-03T07:38:25;6.07;;;4.50;;
71150;SDS011;59071;42.138;24.768;2022-09-03T07:40:56;10.63;;;4.43;;
71150;SDS011;59071;42.138;24.768;2022-09-03T07:43:23;8.90;;;4.75;;
71150;SDS011;59071;42.138;24.768;2022-09-03T07:45:50;5.45;;;4.40;;
71150;SDS011;59071;42.138;24.768;2022-09-03T07:48:16;6.32;;;4.05;;
71150;SDS011;59071;42.138;24.768;2022-09-03T07:50:42;5.45;;;3.60;;
71150;SDS011;59071;42.138;24.768;2022-09-03T07:53:07;8.15;;;4.20;;
71150;SDS011;59071;42.138;24.768;2022-09-03T07:55:32;7.90;;;3.88;;
71150;SDS011;59071;42.138;24.768;2022-09-03T07:57:58;5.30;;;3.63;;
71150;SDS011;59071;42.138;24.768;2022-09-03T08:00:24;6.43;;;3.50;;
71150;SDS011;59071;42.138;24.768;2022-09-03T08:02:52;3.78;;;3.25;;
71150;SDS011;59071;42.138;24.768;2022-09-03T08:05:18;5.45;;;3.45;;
71150;SDS011;59071;42.138;24.768;2022-09-03T08:07:46;5.68;;;3.40;;
71150;SDS011;59071;42.138;24.768;2022-09-03T08:10:13;4.03;;;3.60;;
71150;SDS011;59071;42.138;24.768;2022-09-03T08:12:40;5.22;;;3.60;;
71150;SDS011;59071;42.138;24.768;2022-09-03T08:15:06;5.28;;;4.00;;
71150;SDS011;59071;42.138;24.768;2022-09-03T08:17:32;4.30;;;3.90;;
71150;SDS011;59071;42.138;24.768;2022-09-03T08:19:58;6.72;;;4.03;;
71150;SDS011;59071;42.138;24.768;2022-09-03T08:22:24;5.10;;;4.05;;
71150;SDS011;59071;42.138;24.768;2022-09-03T08:24:50;5.97;;;3.85;;
71150;SDS011;59071;42.138;24.768;2022-09-03T08:27:18;8.88;;;4.00;;
71150;SDS011;59071;42.138;24.768;2022-09-03T08:29:50;4.90;;;3.92;;
71150;SDS011;59071;42.138;24.768;2022-09-03T08:32:15;5.95;;;4.05;;
71150;SDS011;59071;42.138;24.768;2022-09-03T08:34:41;5.20;;;4.70;;
71150;SDS011;59071;42.138;24.768;2022-09-03T08:37:06;8.68;;;4.25;;
71150;SDS011;59071;42.138;24.768;2022-09-03T08:39:33;5.43;;;4.40;;
71150;SDS011;59071;42.138;24.768;2022-09-03T08:44:53;8.00;;;4.85;;
71150;SDS011;59071;42.138;24.768;2022-09-03T08:47:27;7.32;;;4.93;;
71150;SDS011;59071;42.138;24.768;2022-09-03T08:52:47;8.60;;;5.20;;
71150;SDS011;59071;42.138;24.768;2022-09-03T08:55:16;5.20;;;4.57;;
71150;SDS011;59071;42.138;24.768;2022-09-03T08:57:48;5.47;;;4.93;;
71150;SDS011;59071;42.138;24.768;2022-09-03T09:00:17;6.15;;;5.20;;
71150;SDS011;59071;42.138;24.768;2022-09-03T09:02:47;5.40;;;4.50;;
71150;SDS011;59071;42.138;24.768;2022-09-03T09:10:55;5.72;;;4.53;;
71150;SDS011;59071;42.138;24.768;2022-09-03T09:13:43;7.28;;;4.88;;
71150;SDS011;59071;42.138;24.768;2022-09-03T09:19:23;5.47;;;4.68;;
71150;SDS011;59071;42.138;24.768;2022-09-03T09:21:58;7.70;;;5.13;;
71150;SDS011;59071;42.138;24.768;2022-09-03T09:24:28;9.18;;;4.82;;
71150;SDS011;59071;42.138;24.768;2022-09-03T09:27:02;6.43;;;4.80;;
71150;SDS011;59071;42.138;24.768;2022-09-03T09:29:39;6.13;;;4.75;;
71150;SDS011;59071;42.138;24.768;2022-09-03T09:32:06;7.65;;;4.90;;
71150;SDS011;59071;42.138;24.768;2022-09-03T09:34:37;5.07;;;4.50;;
71150;SDS011;59071;42.138;24.768;2022-09-03T09:37:06;5.72;;;4.85;;
71150;SDS011;59071;42.138;24.768;2022-09-03T09:39:34;7.82;;;5.03;;
71150;SDS011;59071;42.138;24.768;2022-09-03T09:42:05;7.40;;;5.00;;
71150;SDS011;59071;42.138;24.768;2022-09-03T09:44:35;5.38;;;4.45;;
71150;SDS011;59071;42.138;24.768;2022-09-03T09:47:07;5.72;;;4.57;;
71150;SDS011;59071;42.138;24.768;2022-09-03T09:49:57;6.38;;;4.53;;
71150;SDS011;59071;42.138;24.768;2022-09-03T09:52:24;5.53;;;4.90;;
71150;SDS011;59071;42.138;24.768;2022-09-03T09:55:05;4.90;;;4.25;;
71150;SDS011;59071;42.138;24.768;2022-09-03T09:57:39;4.88;;;4.38;;
71150;SDS011;59071;42.138;24.768;2022-09-03T10:00:06;5.13;;;4.32;;
71150;SDS011;59071;42.138;24.768;2022-09-03T10:02:35;4.80;;;4.30;;
71150;SDS011;59071;42.138;24.768;2022-09-03T10:10:25;8.07;;;5.70;;
71150;SDS011;59071;42.138;24.768;2022-09-03T10:21:12;5.78;;;4.60;;
71150;SDS011;59071;42.138;24.768;2022-09-03T10:23:53;5.95;;;4.50;;
71150;SDS011;59071;42.138;24.768;2022-09-03T10:26:23;5.15;;;4.63;;
71150;SDS011;59071;42.138;24.768;2022-09-03T10:29:02;7.05;;;4.57;;
71150;SDS011;59071;42.138;24.768;2022-09-03T10:36:55;5.30;;;4.80;;
71150;SDS011;59071;42.138;24.768;2022-09-03T10:50:52;6.53;;;4.78;;
71150;SDS011;59071;42.138;24.768;2022-09-03T10:56:24;5.38;;;4.80;;
71150;SDS011;59071;42.138;24.768;2022-09-03T11:01:49;5.63;;;4.70;;
71150;SDS011;59071;42.138;24.768;2022-09-03T11:04:27;8.75;;;5.20;;
71150;SDS011;59071;42.138;24.768;2022-09-03T11:07:13;5.68;;;5.07;;
71150;SDS011;59071;42.138;24.768;2022-09-03T11:09:52;6.20;;;4.85;;
71150;SDS011;59071;42.138;24.768;2022-09-03T11:12:28;5.28;;;4.75;;
71150;SDS011;59071;42.138;24.768;2022-09-03T11:15:08;10.48;;;9.30;;
71150;SDS011;59071;42.138;24.768;2022-09-03T11:17:45;5.10;;;4.60;;
71150;SDS011;59071;42.138;24.768;2022-09-03T11:20:19;5.32;;;4.82;;
71150;SDS011;59071;42.138;24.768;2022-09-03T11:22:47;5.90;;;4.50;;
71150;SDS011;59071;42.138;24.768;2022-09-03T11:25:16;5.93;;;4.75;;
71150;SDS011;59071;42.138;24.768;2022-09-03T11:30:51;5.43;;;4.90;;
71150;SDS011;59071;42.138;24.768;2022-09-03T11:33:53;6.32;;;4.82;;
71150;SDS011;59071;42.138;24.768;2022-09-03T11:36:29;6.35;;;4.90;;
71150;SDS011;59071;42.138;24.768;2022-09-03T11:38:57;6.32;;;5.07;;
71150;SDS011;59071;42.138;24.768;2022-09-03T11:44:09;5.88;;;4.30;;
71150;SDS011;59071;42.138;24.768;2022-09-03T11:46:40;6.68;;;4.53;;
71150;SDS011;59071;42.138;24.768;2022-09-03T11:49:27;9.40;;;4.80;;
71150;SDS011;59071;42.138;24.768;2022-09-03T11:52:03;4.35;;;3.60;;
71150;SDS011;59071;42.138;24.768;2022-09-03T11:57:14;4.75;;;3.30;;
71150;SDS011;59071;42.138;24.768;2022-09-03T11:59:52;4.30;;;3.33;;
71150;SDS011;59071;42.138;24.768;2022-09-03T12:05:13;3.47;;;2.90;;
71150;SDS011;59071;42.138;24.768;2022-09-03T12:11:05;3.00;;;2.70;;
71150;SDS011;59071;42.138;24.768;2022-09-03T12:16:59;5.40;;;4.00;;
71150;SDS011;59071;42.138;24.768;2022-09-03T12:22:12;4.03;;;3.35;;
71150;SDS011;59071;42.138;24.768;2022-09-03T12:24:39;4.75;;;2.92;;
71150;SDS011;59071;42.138;24.768;2022-09-03T12:27:08;5.43;;;3.10;;
71150;SDS011;59071;42.138;24.768;2022-09-03T12:29:36;4.53;;;3.30;;
71150;SDS011;59071;42.138;24.768;2022-09-03T12:34:35;7.22;;;2.22;;
71150;SDS011;59071;42.138;24.768;2022-09-03T12:37:01;4.10;;;2.50;;
71150;SDS011;59071;42.138;24.768;2022-09-03T12:39:27;4.45;;;2.72;;
71150;SDS011;59071;42.138;24.768;2022-09-03T12:47:13;2.35;;;2.10;;
71150;SDS011;59071;42.138;24.768;2022-09-03T12:49:43;3.22;;;2.30;;
71150;SDS011;59071;42.138;24.768;2022-09-03T12:52:22;3.07;;;2.33;;
71150;SDS011;59071;42.138;24.768;2022-09-03T13:00:57;3.55;;;2.42;;
71150;SDS011;59071;42.138;24.768;2022-09-03T13:05:53;2.17;;;1.90;;
71150;SDS011;59071;42.138;24.768;2022-09-03T13:08:24;4.32;;;1.83;;
71150;SDS011;59071;42.138;24.768;2022-09-03T13:10:52;6.32;;;2.15;;
71150;SDS011;59071;42.138;24.768;2022-09-03T13:13:28;3.50;;;2.60;;
71150;SDS011;59071;42.138;24.768;2022-09-03T13:15:59;2.35;;;2.00;;
71150;SDS011;59071;42.138;24.768;2022-09-03T13:18:36;2.90;;;1.80;;
71150;SDS011;59071;42.138;24.768;2022-09-03T13:32:25;2.10;;;1.63;;
71150;SDS011;59071;42.138;24.768;2022-09-03T13:35:15;2.38;;;1.48;;
71150;SDS011;59071;42.138;24.768;2022-09-03T13:37:53;2.63;;;1.50;;
71150;SDS011;59071;42.138;24.768;2022-09-03T13:40:36;1.70;;;1.50;;
71150;SDS011;59071;42.138;24.768;2022-09-03T13:43:14;3.05;;;1.52;;
71150;SDS011;59071;42.138;24.768;2022-09-03T13:45:44;1.55;;;1.45;;
71150;SDS011;59071;42.138;24.768;2022-09-03T13:48:19;2.03;;;1.50;;
71150;SDS011;59071;42.138;24.768;2022-09-03T13:51:22;1.58;;;1.30;;
71150;SDS011;59071;42.138;24.768;2022-09-03T13:54:10;1.80;;;1.42;;
71150;SDS011;59071;42.138;24.768;2022-09-03T13:59:49;2.90;;;2.05;;
71150;SDS011;59071;42.138;24.768;2022-09-03T14:07:47;2.03;;;1.42;;
71150;SDS011;59071;42.138;24.768;2022-09-03T14:19:08;1.95;;;1.83;;
71150;SDS011;59071;42.138;24.768;2022-09-03T14:21:41;2.83;;;1.70;;
71150;SDS011;59071;42.138;24.768;2022-09-03T14:27:00;4.75;;;1.90;;
71150;SDS011;59071;42.138;24.768;2022-09-03T14:29:30;4.20;;;1.60;;
71150;SDS011;59071;42.138;24.768;2022-09-03T14:43:00;3.25;;;1.90;;
71150;SDS011;59071;42.138;24.768;2022-09-03T14:48:35;2.30;;;2.10;;
71150;SDS011;59071;42.138;24.768;2022-09-03T15:02:35;2.15;;;1.92;;
71150;SDS011;59071;42.138;24.768;2022-09-03T15:10:37;3.33;;;2.20;;
71150;SDS011;59071;42.138;24.768;2022-09-03T15:20:53;2.53;;;1.85;;
71150;SDS011;59071;42.138;24.768;2022-09-03T15:31:57;2.40;;;1.90;;
71150;SDS011;59071;42.138;24.768;2022-09-03T15:40:15;4.22;;;3.42;;
71150;SDS011;59071;42.138;24.768;2022-09-03T15:42:45;3.20;;;2.30;;
71150;SDS011;59071;42.138;24.768;2022-09-03T15:45:27;2.55;;;2.00;;
71150;SDS011;59071;42.138;24.768;2022-09-03T15:48:06;3.53;;;1.95;;
71150;SDS011;59071;42.138;24.768;2022-09-03T15:59:02;2.05;;;1.70;;
71150;SDS011;59071;42.138;24.768;2022-09-03T16:04:41;1.70;;;1.60;;
71150;SDS011;59071;42.138;24.768;2022-09-03T16:10:11;1.70;;;1.60;;
71150;SDS011;59071;42.138;24.768;2022-09-03T16:23:59;4.82;;;2.15;;
71150;SDS011;59071;42.138;24.768;2022-09-03T16:26:36;3.90;;;2.10;;
71150;SDS011;59071;42.138;24.768;2022-09-03T16:29:12;2.42;;;2.00;;
71150;SDS011;59071;42.138;24.768;2022-09-03T16:31:50;3.65;;;3.15;;
71150;SDS011;59071;42.138;24.768;2022-09-03T16:34:30;5.38;;;4.30;;
71150;SDS011;59071;42.138;24.768;2022-09-03T16:42:21;6.72;;;1.98;;
71150;SDS011;59071;42.138;24.768;2022-09-03T16:47:38;2.53;;;2.00;;
71150;SDS011;59071;42.138;24.768;2022-09-03T17:03:26;3.00;;;2.28;;
71150;SDS011;59071;42.138;24.768;2022-09-03T17:15:35;3.92;;;2.13;;
71150;SDS011;59071;42.138;24.768;2022-09-03T17:23:00;6.88;;;2.63;;
71150;SDS011;59071;42.138;24.768;2022-09-03T17:40:14;3.30;;;3.00;;
71150;SDS011;59071;42.138;24.768;2022-09-03T17:51:04;10.50;;;8.50;;
71150;SDS011;59071;42.138;24.768;2022-09-03T17:56:10;3.83;;;3.10;;
71150;SDS011;59071;42.138;24.768;2022-09-03T17:58:49;3.47;;;3.17;;
71150;SDS011;59071;42.138;24.768;2022-09-03T18:01:23;4.40;;;3.28;;
71150;SDS011;59071;42.138;24.768;2022-09-03T18:03:57;3.40;;;2.90;;
71150;SDS011;59071;42.138;24.768;2022-09-03T18:06:49;5.20;;;3.30;;
71150;SDS011;59071;42.138;24.768;2022-09-03T18:09:46;4.40;;;3.15;;
71150;SDS011;59071;42.138;24.768;2022-09-03T18:15:31;4.53;;;3.53;;
71150;SDS011;59071;42.138;24.768;2022-09-03T18:18:30;4.25;;;3.42;;
71150;SDS011;59071;42.138;24.768;2022-09-03T18:20:58;4.13;;;3.40;;
71150;SDS011;59071;42.138;24.768;2022-09-03T18:24:03;5.18;;;3.55;;
71150;SDS011;59071;42.138;24.768;2022-09-03T18:26:57;6.10;;;3.40;;
71150;SDS011;59071;42.138;24.768;2022-09-03T18:29:49;4.47;;;3.60;;
71150;SDS011;59071;42.138;24.768;2022-09-03T18:32:42;4.88;;;3.60;;
71150;SDS011;59071;42.138;24.768;2022-09-03T18:35:26;4.18;;;3.55;;
71150;SDS011;59071;42.138;24.768;2022-09-03T18:38:13;8.38;;;3.95;;
71150;SDS011;59071;42.138;24.768;2022-09-03T18:55:56;5.47;;;3.60;;
71150;SDS011;59071;42.138;24.768;2022-09-03T19:02:13;4.47;;;3.72;;
71150;SDS011;59071;42.138;24.768;2022-09-03T19:17:37;4.65;;;4.00;;
71150;SDS011;59071;42.138;24.768;2022-09-03T19:20:27;4.63;;;4.13;;
71150;SDS011;59071;42.138;24.768;2022-09-03T19:23:13;6.72;;;4.10;;
71150;SDS011;59071;42.138;24.768;2022-09-03T19:25:58;4.93;;;4.10;;
71150;SDS011;59071;42.138;24.768;2022-09-03T19:29:06;6.18;;;4.00;;
71150;SDS011;59071;42.138;24.768;2022-09-03T19:32:00;4.88;;;4.32;;
71150;SDS011;59071;42.138;24.768;2022-09-03T19:47:08;4.50;;;4.10;;
71150;SDS011;59071;42.138;24.768;2022-09-03T19:53:06;5.40;;;4.38;;
71150;SDS011;59071;42.138;24.768;2022-09-03T19:55:54;4.95;;;4.30;;
71150;SDS011;59071;42.138;24.768;2022-09-03T19:58:51;8.43;;;6.35;;
71150;SDS011;59071;42.138;24.768;2022-09-03T20:01:46;4.50;;;4.10;;
71150;SDS011;59071;42.138;24.768;2022-09-03T20:04:42;5.80;;;4.32;;
71150;SDS011;59071;42.138;24.768;2022-09-03T20:07:30;4.78;;;4.07;;
71150;SDS011;59071;42.138;24.768;2022-09-03T20:10:16;8.02;;;4.50;;
71150;SDS011;59071;42.138;24.768;2022-09-03T20:13:08;4.50;;;4.10;;
71150;SDS011;59071;42.138;24.768;2022-09-03T20:21:19;4.90;;;4.30;;
71150;SDS011;59071;42.138;24.768;2022-09-03T20:26:55;6.75;;;4.35;;
71150;SDS011;59071;42.138;24.768;2022-09-03T20:32:04;6.55;;;4.47;;
71150;SDS011;59071;42.138;24.768;2022-09-03T20:39:34;5.50;;;4.65;;
71150;SDS011;59071;42.138;24.768;2022-09-03T20:45:16;5.25;;;4.38;;
71150;SDS011;59071;42.138;24.768;2022-09-03T20:55:48;5.72;;;4.43;;
71150;SDS011;59071;42.138;24.768;2022-09-03T21:00:46;7.68;;;5.20;;
71150;SDS011;59071;42.138;24.768;2022-09-03T21:03:14;5.35;;;4.47;;
71150;SDS011;59071;42.138;24.768;2022-09-03T21:16:41;5.43;;;4.32;;
71150;SDS011;59071;42.138;24.768;2022-09-03T21:25:14;6.18;;;4.40;;
71150;SDS011;59071;42.138;24.768;2022-09-03T21:27:48;7.50;;;4.72;;
71150;SDS011;59071;42.138;24.768;2022-09-03T21:30:18;5.53;;;4.50;;
71150;SDS011;59071;42.138;24.768;2022-09-03T21:32:53;5.07;;;4.13;;
71150;SDS011;59071;42.138;24.768;2022-09-03T21:37:54;5.40;;;4.70;;
71150;SDS011;59071;42.138;24.768;2022-09-03T21:40:25;4.60;;;4.20;;
71150;SDS011;59071;42.138;24.768;2022-09-03T21:42:56;6.25;;;4.45;;
71150;SDS011;59071;42.138;24.768;2022-09-03T21:45:39;8.63;;;4.38;;
71150;SDS011;59071;42.138;24.768;2022-09-03T21:48:12;4.85;;;4.45;;
71150;SDS011;59071;42.138;24.768;2022-09-03T21:50:55;7.53;;;4.38;;
71150;SDS011;59071;42.138;24.768;2022-09-03T21:58:58;5.32;;;4.43;;
71150;SDS011;59071;42.138;24.768;2022-09-03T22:01:51;4.60;;;4.20;;
71150;SDS011;59071;42.138;24.768;2022-09-03T22:04:19;4.35;;;3.95;;
71150;SDS011;59071;42.138;24.768;2022-09-03T22:10:27;4.55;;;4.15;;